Time;durP1;ratioP1;P1;durP2;ratioP2;P2;SDS_P1;SDS_P2;PMS_P1;PMS_P2;Temp;Humidity;BMP_temperature;BMP_pressure;BME280_temperature;BME280_humidity;BME280_pressure;Samples;Min_cycle;Max_cycle;Signal;HPM_P1;HPM_P2
2022/05/07 00:01:22;;;;;;;16.92;15.23;;;;;;;;;;4919815;29;20468;-85
2022/05/07 00:03:48;;;;;;;17.00;15.38;;;;;;;;;;4920596;29;20443;-86
2022/05/07 00:06:17;;;;;;;16.50;14.80;;;;;;;;;;4922927;29;20028;-92
2022/05/07 00:08:43;;;;;;;15.23;13.68;;;;;;;;;;4920157;29;20032;-85
2022/05/07 00:11:10;;;;;;;16.58;14.88;;;;;;;;;;4919840;29;20028;-85
2022/05/07 00:13:36;;;;;;;15.70;14.18;;;;;;;;;;4920865;29;20492;-84
2022/05/07 00:18:47;;;;;;;17.08;15.48;;;;;;;;;;4921883;29;20112;-85
2022/05/07 00:21:14;;;;;;;17.30;15.70;;;;;;;;;;4919726;29;20122;-92
2022/05/07 00:23:40;;;;;;;19.52;17.70;;;;;;;;;;4918491;29;20032;-83
2022/05/07 00:26:06;;;;;;;16.20;14.70;;;;;;;;;;4919724;29;20032;-82
2022/05/07 00:28:41;;;;;;;18.75;16.95;;;;;;;;;;4923412;29;20119;-92
2022/05/07 00:31:07;;;;;;;16.05;14.55;;;;;;;;;;4919809;29;20032;-88
2022/05/07 00:33:39;;;;;;;18.00;16.27;;;;;;;;;;4920910;29;20028;-96
2022/05/07 00:36:14;;;;;;;16.33;14.82;;;;;;;;;;4920542;29;20036;-93
2022/05/07 00:38:47;;;;;;;18.70;16.17;;;;;;;;;;4919419;29;20043;-93
2022/05/07 00:41:16;;;;;;;15.93;14.32;;;;;;;;;;4921373;29;20032;-96
2022/05/07 00:43:42;;;;;;;16.45;14.80;;;;;;;;;;4920751;29;20035;-85
2022/05/07 00:46:09;;;;;;;16.00;14.40;;;;;;;;;;4917862;29;20039;-83
2022/05/07 00:48:38;;;;;;;16.52;14.93;;;;;;;;;;4918705;29;20028;-93
2022/05/07 00:53:50;;;;;;;16.42;14.55;;;;;;;;;;4919729;29;20100;-85
2022/05/07 00:56:19;;;;;;;15.13;13.70;;;;;;;;;;4919837;29;20040;-91
2022/05/07 00:58:45;;;;;;;14.82;13.05;;;;;;;;;;4921881;29;20076;-84
2022/05/07 01:01:14;;;;;;;15.93;13.60;;;;;;;;;;4918427;29;20043;-92
2022/05/07 01:03:41;;;;;;;17.05;15.25;;;;;;;;;;4919149;29;20024;-83
2022/05/07 01:06:09;;;;;;;15.73;14.13;;;;;;;;;;4918325;29;20044;-93
2022/05/07 01:08:36;;;;;;;13.23;11.95;;;;;;;;;;4919964;29;20039;-86
2022/05/07 01:11:05;;;;;;;14.18;12.77;;;;;;;;;;4918379;29;20032;-88
2022/05/07 01:13:32;;;;;;;14.80;13.10;;;;;;;;;;4918128;29;20626;-86
2022/05/07 01:15:59;;;;;;;14.18;12.65;;;;;;;;;;4918168;29;20078;-94
2022/05/07 01:18:25;;;;;;;14.65;12.43;;;;;;;;;;4918681;29;20096;-87
2022/05/07 01:20:52;;;;;;;16.60;14.85;;;;;;;;;;4918326;29;20537;-86
2022/05/07 01:23:18;;;;;;;15.95;13.45;;;;;;;;;;4918267;29;20039;-94
2022/05/07 01:25:44;;;;;;;14.90;13.43;;;;;;;;;;4919442;29;20072;-86
2022/05/07 01:28:11;;;;;;;15.57;14.07;;;;;;;;;;4917927;29;20123;-93
2022/05/07 01:33:26;;;;;;;16.00;14.40;;;;;;;;;;4918943;29;20036;-86
2022/05/07 01:35:52;;;;;;;17.58;14.90;;;;;;;;;;4917756;29;20401;-93
2022/05/07 01:38:18;;;;;;;15.93;14.52;;;;;;;;;;4918236;29;20064;-84
2022/05/07 01:40:45;;;;;;;15.52;14.02;;;;;;;;;;4917468;29;20032;-92
2022/05/07 01:43:11;;;;;;;14.85;13.45;;;;;;;;;;4918056;29;20063;-85
2022/05/07 01:45:37;;;;;;;17.00;14.93;;;;;;;;;;4917792;29;20028;-85
2022/05/07 01:48:09;;;;;;;14.60;12.98;;;;;;;;;;4922113;29;20024;-85
2022/05/07 01:50:37;;;;;;;15.52;13.40;;;;;;;;;;4919022;29;20032;-85
2022/05/07 01:53:04;;;;;;;14.60;13.20;;;;;;;;;;4917891;29;20028;-84
2022/05/07 01:55:30;;;;;;;15.30;13.85;;;;;;;;;;4917702;29;20044;-85
2022/05/07 01:57:58;;;;;;;15.48;13.88;;;;;;;;;;4918226;29;20027;-91
2022/05/07 02:00:24;;;;;;;15.02;13.57;;;;;;;;;;4918186;29;20032;-85
2022/05/07 02:02:50;;;;;;;15.70;14.00;;;;;;;;;;4918434;29;20032;-85
2022/05/07 02:05:16;;;;;;;17.85;16.00;;;;;;;;;;4918841;29;20446;-93
2022/05/07 02:07:42;;;;;;;18.80;16.40;;;;;;;;;;4919591;29;20107;-85
2022/05/07 02:10:12;;;;;;;18.80;16.90;;;;;;;;;;4918925;29;20438;-92
2022/05/07 02:12:48;;;;;;;17.63;15.82;;;;;;;;;;4922636;29;20850;-92
2022/05/07 02:15:14;;;;;;;21.02;18.88;;;;;;;;;;4918474;29;20060;-87
2022/05/07 02:17:43;;;;;;;18.25;16.35;;;;;;;;;;4920524;29;20064;-87
2022/05/07 02:20:12;;;;;;;19.10;16.90;;;;;;;;;;4921137;29;20028;-86
2022/05/07 02:22:39;;;;;;;18.45;16.55;;;;;;;;;;4917790;29;20029;-85
2022/05/07 02:25:08;;;;;;;19.52;17.52;;;;;;;;;;4919698;29;20130;-93
2022/05/07 02:28:05;;;;;;;20.65;18.75;;;;;;;;;;4921187;29;20055;-95
2022/05/07 02:30:31;;;;;;;21.13;18.92;;;;;;;;;;4895595;29;20036;-84
2022/05/07 02:33:03;;;;;;;24.48;21.80;;;;;;;;;;4917578;29;20028;-93
2022/05/07 02:35:30;;;;;;;23.65;19.50;;;;;;;;;;4920488;29;20035;-85
2022/05/07 02:37:56;;;;;;;22.67;20.52;;;;;;;;;;4916929;29;20024;-85
2022/05/07 02:40:22;;;;;;;25.33;21.38;;;;;;;;;;4917399;29;20024;-85
2022/05/07 02:42:48;;;;;;;22.60;20.20;;;;;;;;;;4917673;29;20080;-86
2022/05/07 02:45:18;;;;;;;25.35;22.75;;;;;;;;;;4920567;29;20035;-93
2022/05/07 02:47:45;;;;;;;25.60;22.90;;;;;;;;;;4921349;29;20031;-86
2022/05/07 02:50:12;;;;;;;25.70;23.25;;;;;;;;;;4923898;29;20029;-92
2022/05/07 02:52:38;;;;;;;24.95;22.35;;;;;;;;;;4926726;29;20091;-86
2022/05/07 02:55:06;;;;;;;24.98;22.38;;;;;;;;;;4922198;29;20496;-85
2022/05/07 02:57:32;;;;;;;23.95;21.60;;;;;;;;;;4920885;29;20493;-86
2022/05/07 03:00:08;;;;;;;22.23;19.85;;;;;;;;;;4920824;29;20394;-87
2022/05/07 03:02:34;;;;;;;23.13;20.83;;;;;;;;;;4920788;29;20039;-85
2022/05/07 03:05:00;;;;;;;23.60;21.02;;;;;;;;;;4920336;29;20067;-85
2022/05/07 03:07:26;;;;;;;22.25;19.85;;;;;;;;;;4923693;29;20509;-86
2022/05/07 03:09:52;;;;;;;20.55;18.52;;;;;;;;;;4920354;29;20375;-85
2022/05/07 03:12:19;;;;;;;18.88;16.85;;;;;;;;;;4921888;29;20028;-94
2022/05/07 03:14:45;;;;;;;20.13;18.13;;;;;;;;;;4922797;29;20056;-86
2022/05/07 03:17:11;;;;;;;22.75;19.80;;;;;;;;;;4922660;29;20078;-86
2022/05/07 03:19:46;;;;;;;22.08;19.27;;;;;;;;;;4920678;29;20031;-93
2022/05/07 03:22:12;;;;;;;20.65;18.65;;;;;;;;;;4923327;29;20060;-94
2022/05/07 03:24:40;;;;;;;18.45;16.75;;;;;;;;;;4924264;29;20028;-86
2022/05/07 03:27:06;;;;;;;20.77;18.58;;;;;;;;;;4922508;29;20036;-87
2022/05/07 03:29:32;;;;;;;19.85;17.85;;;;;;;;;;4921924;29;20029;-88
2022/05/07 03:31:59;;;;;;;19.00;17.17;;;;;;;;;;4925238;29;20394;-83
2022/05/07 03:34:25;;;;;;;18.60;16.70;;;;;;;;;;4923611;29;20161;-85
2022/05/07 03:37:06;;;;;;;19.70;17.65;;;;;;;;;;4928219;29;20130;-87
2022/05/07 03:39:32;;;;;;;18.65;16.77;;;;;;;;;;4922418;29;20087;-85
2022/05/07 03:41:58;;;;;;;20.90;17.63;;;;;;;;;;4924571;29;20043;-84
2022/05/07 03:44:25;;;;;;;18.00;16.10;;;;;;;;;;4925851;29;20032;-94
2022/05/07 03:46:57;;;;;;;20.08;17.83;;;;;;;;;;4926277;29;20032;-85
2022/05/07 03:49:23;;;;;;;18.83;16.35;;;;;;;;;;4921210;29;20062;-86
2022/05/07 03:54:34;;;;;;;19.33;17.30;;;;;;;;;;4922716;29;20040;-85
2022/05/07 03:57:00;;;;;;;19.80;17.60;;;;;;;;;;4923498;29;20465;-86
2022/05/07 03:59:26;;;;;;;20.10;18.00;;;;;;;;;;4922827;29;20028;-89
2022/05/07 04:01:58;;;;;;;20.60;18.40;;;;;;;;;;4922264;29;20040;-88
2022/05/07 04:04:30;;;;;;;22.75;20.35;;;;;;;;;;4920269;29;20032;-85
2022/05/07 04:07:09;;;;;;;23.63;21.30;;;;;;;;;;4921414;29;20099;-93
2022/05/07 04:09:36;;;;;;;28.20;25.25;;;;;;;;;;4923400;29;20042;-85
2022/05/07 04:12:02;;;;;;;24.30;21.90;;;;;;;;;;4920915;29;20028;-84
2022/05/07 04:14:31;;;;;;;26.63;23.90;;;;;;;;;;4921142;29;20036;-93
2022/05/07 04:16:57;;;;;;;26.98;24.27;;;;;;;;;;4920283;29;20043;-83
2022/05/07 04:19:23;;;;;;;25.33;22.77;;;;;;;;;;4920228;29;20024;-84
2022/05/07 04:21:49;;;;;;;27.90;25.17;;;;;;;;;;4919969;29;20039;-85
2022/05/07 04:24:16;;;;;;;30.38;27.15;;;;;;;;;;4919850;29;20062;-85
2022/05/07 04:26:48;;;;;;;29.33;26.33;;;;;;;;;;4910212;29;20119;-87
2022/05/07 04:29:17;;;;;;;30.10;27.10;;;;;;;;;;4914149;29;20371;-94
2022/05/07 04:31:44;;;;;;;32.85;29.35;;;;;;;;;;4918754;29;20481;-83
2022/05/07 04:34:10;;;;;;;30.30;27.20;;;;;;;;;;4919735;29;20127;-84
2022/05/07 04:36:37;;;;;;;31.42;28.23;;;;;;;;;;4918590;29;20043;-83
2022/05/07 04:39:03;;;;;;;30.80;27.45;;;;;;;;;;4920863;29;20051;-83
2022/05/07 04:41:29;;;;;;;30.05;26.92;;;;;;;;;;4917356;29;20035;-84
2022/05/07 04:43:55;;;;;;;31.73;28.42;;;;;;;;;;4906654;29;20111;-83
2022/05/07 04:46:24;;;;;;;27.27;24.48;;;;;;;;;;4912506;29;20040;-82
2022/05/07 04:48:51;;;;;;;29.67;26.63;;;;;;;;;;4910533;29;20423;-83
2022/05/07 04:51:18;;;;;;;29.85;26.65;;;;;;;;;;4907174;29;20124;-89
2022/05/07 04:53:47;;;;;;;28.05;25.25;;;;;;;;;;4898981;29;20024;-88
2022/05/07 04:56:15;;;;;;;27.30;24.52;;;;;;;;;;4902570;29;20115;-88
2022/05/07 04:58:41;;;;;;;28.80;25.17;;;;;;;;;;4899687;29;20028;-86
2022/05/07 05:01:07;;;;;;;26.65;24.02;;;;;;;;;;4903213;29;20094;-88
2022/05/07 05:03:36;;;;;;;25.45;22.95;;;;;;;;;;4913115;29;20025;-87
2022/05/07 05:06:02;;;;;;;24.42;22.02;;;;;;;;;;4916155;29;20036;-87
2022/05/07 05:08:30;;;;;;;22.45;20.25;;;;;;;;;;4914259;29;20112;-87
2022/05/07 05:10:57;;;;;;;24.80;22.30;;;;;;;;;;4902405;29;20033;-86
2022/05/07 05:13:23;;;;;;;23.48;21.05;;;;;;;;;;4883935;29;20032;-88
2022/05/07 05:15:52;;;;;;;21.92;19.63;;;;;;;;;;4914810;29;20482;-88
2022/05/07 05:18:24;;;;;;;26.77;24.00;;;;;;;;;;4902252;29;20085;-91
2022/05/07 05:21:10;;;;;;;27.27;24.38;;;;;;;;;;4902250;29;20032;-89
2022/05/07 05:23:46;;;;;;;26.90;24.10;;;;;;;;;;4902700;29;20036;-89
2022/05/07 05:26:13;;;;;;;25.65;23.10;;;;;;;;;;4902988;29;20477;-92
2022/05/07 05:28:47;;;;;;;22.95;20.63;;;;;;;;;;4902035;29;20120;-91
2022/05/07 05:31:16;;;;;;;20.38;18.38;;;;;;;;;;4918225;29;20040;-89
2022/05/07 05:33:42;;;;;;;20.75;18.58;;;;;;;;;;4917198;29;20095;-89
2022/05/07 05:36:08;;;;;;;20.23;18.13;;;;;;;;;;4918194;29;20087;-88
2022/05/07 05:38:34;;;;;;;19.60;17.70;;;;;;;;;;4918162;29;20028;-84
2022/05/07 05:41:00;;;;;;;19.52;17.63;;;;;;;;;;4921825;29;20028;-84
2022/05/07 05:43:27;;;;;;;21.52;19.42;;;;;;;;;;4917531;29;20066;-86
2022/05/07 05:45:59;;;;;;;20.13;18.15;;;;;;;;;;4917569;29;20109;-88
2022/05/07 05:48:29;;;;;;;19.17;17.27;;;;;;;;;;4917782;29;20374;-88
2022/05/07 05:50:56;;;;;;;22.13;19.88;;;;;;;;;;4917952;29;20090;-89
2022/05/07 05:53:25;;;;;;;21.58;19.27;;;;;;;;;;4917558;29;20083;-88
2022/05/07 05:55:54;;;;;;;22.23;19.92;;;;;;;;;;4918038;29;20032;-86
2022/05/07 05:58:20;;;;;;;21.80;19.52;;;;;;;;;;4918340;29;20034;-87
2022/05/07 06:01:06;;;;;;;21.92;19.65;;;;;;;;;;4918479;29;20024;-82
2022/05/07 06:03:35;;;;;;;19.70;17.80;;;;;;;;;;4923332;29;20038;-92
2022/05/07 06:06:04;;;;;;;20.83;18.63;;;;;;;;;;4921245;29;20675;-88
2022/05/07 06:08:31;;;;;;;20.52;18.42;;;;;;;;;;4920792;29;20126;-92
2022/05/07 06:14:01;;;;;;;20.70;18.63;;;;;;;;;;4924497;29;20035;-89
2022/05/07 06:16:30;;;;;;;20.63;18.55;;;;;;;;;;4919202;29;20131;-94
2022/05/07 06:19:15;;;;;;;24.55;20.80;;;;;;;;;;4920130;29;20111;-94
2022/05/07 06:21:41;;;;;;;23.05;20.67;;;;;;;;;;4921187;29;20036;-90
2022/05/07 06:29:49;;;;;;;22.13;19.92;;;;;;;;;;4919843;29;20114;-85
2022/05/07 06:32:15;;;;;;;21.67;19.48;;;;;;;;;;4916947;29;20466;-90
2022/05/07 06:34:41;;;;;;;20.80;18.60;;;;;;;;;;4917028;29;20028;-89
2022/05/07 06:37:07;;;;;;;19.42;17.33;;;;;;;;;;4916880;29;20099;-89
2022/05/07 06:39:33;;;;;;;19.25;17.23;;;;;;;;;;4918438;29;20031;-89
2022/05/07 06:42:00;;;;;;;17.65;15.77;;;;;;;;;;4918908;29;20474;-89
2022/05/07 06:44:26;;;;;;;15.32;13.63;;;;;;;;;;4919755;29;20032;-90
2022/05/07 06:49:47;;;;;;;14.88;12.98;;;;;;;;;;4911185;29;20035;-93
2022/05/07 06:52:14;;;;;;;12.88;10.60;;;;;;;;;;4917545;29;20040;-88
2022/05/07 06:54:43;;;;;;;12.93;11.07;;;;;;;;;;4916729;29;20028;-90
2022/05/07 06:57:15;;;;;;;11.88;9.52;;;;;;;;;;4917055;29;20068;-91
2022/05/07 06:59:43;;;;;;;15.70;10.30;;;;;;;;;;4916596;29;20210;-90
2022/05/07 07:02:09;;;;;;;17.67;9.15;;;;;;;;;;4900970;29;20032;-85
2022/05/07 07:04:35;;;;;;;10.25;8.25;;;;;;;;;;4916637;29;20025;-88
2022/05/07 07:07:01;;;;;;;12.88;8.63;;;;;;;;;;4917712;29;20039;-86
2022/05/07 07:09:27;;;;;;;9.68;7.53;;;;;;;;;;4922207;29;20028;-84
2022/05/07 07:11:54;;;;;;;11.88;7.30;;;;;;;;;;4924437;29;20050;-89
2022/05/07 07:14:20;;;;;;;9.63;7.50;;;;;;;;;;4919316;29;20134;-86
2022/05/07 07:16:46;;;;;;;8.52;7.32;;;;;;;;;;4929671;29;20532;-86
2022/05/07 07:19:15;;;;;;;9.02;7.80;;;;;;;;;;4919239;29;20091;-89
2022/05/07 07:21:42;;;;;;;7.95;6.97;;;;;;;;;;4935383;29;20035;-88
2022/05/07 07:24:08;;;;;;;7.93;7.13;;;;;;;;;;4936373;29;20051;-80
2022/05/07 07:26:34;;;;;;;9.80;7.57;;;;;;;;;;4918636;29;20039;-78
2022/05/07 07:29:00;;;;;;;9.23;6.90;;;;;;;;;;4915242;29;20386;-79
2022/05/07 07:31:27;;;;;;;9.65;7.80;;;;;;;;;;4919258;29;20478;-81
2022/05/07 07:33:53;;;;;;;8.80;6.90;;;;;;;;;;4919760;29;20032;-86
2022/05/07 07:36:19;;;;;;;7.95;6.70;;;;;;;;;;4919165;29;20059;-81
2022/05/07 07:38:48;;;;;;;8.60;6.28;;;;;;;;;;4920309;29;20164;-91
2022/05/07 07:41:15;;;;;;;11.95;7.45;;;;;;;;;;4919917;29;20035;-94
2022/05/07 07:43:41;;;;;;;8.43;7.15;;;;;;;;;;4924639;29;20039;-88
2022/05/07 07:48:52;;;;;;;8.73;6.82;;;;;;;;;;4939683;29;20039;-84
2022/05/07 07:51:19;;;;;;;11.30;7.85;;;;;;;;;;4938523;29;20393;-84
2022/05/07 07:53:47;;;;;;;9.93;8.02;;;;;;;;;;4938774;29;20023;-91
2022/05/07 07:56:13;;;;;;;9.30;8.05;;;;;;;;;;4938507;29;20042;-87
2022/05/07 07:58:39;;;;;;;13.82;8.07;;;;;;;;;;4937769;29;20079;-85
2022/05/07 08:01:05;;;;;;;8.95;8.05;;;;;;;;;;4937674;29;20032;-82
2022/05/07 08:03:31;;;;;;;10.63;8.57;;;;;;;;;;4935700;29;20035;-81
2022/05/07 08:05:57;;;;;;;9.48;7.95;;;;;;;;;;4921456;29;20486;-85
2022/05/07 08:13:54;;;;;;;9.80;8.80;;;;;;;;;;4927499;29;20500;-88
2022/05/07 08:16:20;;;;;;;10.18;9.10;;;;;;;;;;4949247;29;20058;-86
2022/05/07 08:23:42;;;;;;;11.73;9.43;;;;;;;;;;4936730;29;20111;-84
2022/05/07 08:26:09;;;;;;;11.10;9.95;;;;;;;;;;4923364;29;20134;-87
2022/05/07 08:28:38;;;;;;;9.93;8.93;;;;;;;;;;4939851;29;20481;-90
2022/05/07 08:31:05;;;;;;;10.98;9.88;;;;;;;;;;4922391;29;20018;-89
2022/05/07 08:33:39;;;;;;;11.43;10.25;;;;;;;;;;4922554;29;20056;-89
2022/05/07 08:36:05;;;;;;;12.80;10.82;;;;;;;;;;4936528;29;20586;-83
2022/05/07 08:38:31;;;;;;;13.23;10.88;;;;;;;;;;4938143;29;20544;-80
2022/05/07 08:41:00;;;;;;;14.15;10.45;;;;;;;;;;4922078;29;20027;-80
2022/05/07 08:43:26;;;;;;;11.20;10.02;;;;;;;;;;4935020;29;20031;-82
2022/05/07 08:45:53;;;;;;;16.08;10.55;;;;;;;;;;4936259;29;20118;-81
2022/05/07 08:48:19;;;;;;;13.32;10.05;;;;;;;;;;4938084;29;20430;-81
2022/05/07 08:50:46;;;;;;;11.85;10.05;;;;;;;;;;4938151;29;20039;-81
2022/05/07 08:53:12;;;;;;;26.40;9.75;;;;;;;;;;4939098;29;20032;-95
2022/05/07 08:55:38;;;;;;;9.20;8.30;;;;;;;;;;4938345;29;20481;-87
2022/05/07 08:58:05;;;;;;;9.88;8.88;;;;;;;;;;4921451;29;20115;-84
2022/05/07 09:00:31;;;;;;;9.82;8.85;;;;;;;;;;4938587;29;20028;-88
2022/05/07 09:03:01;;;;;;;9.48;8.43;;;;;;;;;;4938108;29;20028;-92
2022/05/07 09:05:33;;;;;;;9.50;8.50;;;;;;;;;;4936455;29;20039;-93
2022/05/07 09:08:03;;;;;;;12.32;8.95;;;;;;;;;;4938344;29;20035;-91
2022/05/07 09:10:33;;;;;;;10.70;8.57;;;;;;;;;;4922801;29;20036;-88
2022/05/07 09:13:00;;;;;;;11.85;8.75;;;;;;;;;;4938779;29;20130;-92
2022/05/07 09:15:51;;;;;;;11.13;8.15;;;;;;;;;;4937077;29;20039;-94
2022/05/07 09:18:22;;;;;;;8.93;7.90;;;;;;;;;;4936822;29;20040;-94
2022/05/07 09:21:15;;;;;;;8.10;7.30;;;;;;;;;;4940446;29;20020;-92
2022/05/07 09:23:45;;;;;;;10.27;7.60;;;;;;;;;;4904536;29;20052;-92
2022/05/07 09:26:30;;;;;;;12.63;7.32;;;;;;;;;;4919618;29;20032;-94
2022/05/07 09:29:00;;;;;;;8.65;7.75;;;;;;;;;;4918811;29;20042;-91
2022/05/07 09:31:31;;;;;;;8.50;7.70;;;;;;;;;;4919461;29;20449;-90
2022/05/07 09:36:49;;;;;;;12.88;8.23;;;;;;;;;;4920313;29;20039;-89
2022/05/07 09:39:22;;;;;;;11.45;8.27;;;;;;;;;;4919777;29;20110;-91
2022/05/07 09:41:54;;;;;;;8.90;7.60;;;;;;;;;;4921107;29;20028;-89
2022/05/07 09:44:24;;;;;;;9.23;8.32;;;;;;;;;;4919240;29;20036;-87
2022/05/07 09:46:50;;;;;;;15.63;8.20;;;;;;;;;;4918566;29;20024;-92
2022/05/07 09:49:20;;;;;;;9.40;7.97;;;;;;;;;;4918628;29;20028;-85
2022/05/07 09:51:46;;;;;;;9.10;8.20;;;;;;;;;;4917536;29;20028;-86
2022/05/07 09:59:43;;;;;;;12.55;8.32;;;;;;;;;;4921069;29;20099;-87
2022/05/07 10:02:28;;;;;;;10.23;8.40;;;;;;;;;;4918229;29;20047;-89
2022/05/07 10:05:11;;;;;;;9.23;8.32;;;;;;;;;;4919344;29;20040;-86
2022/05/07 10:07:44;;;;;;;9.27;8.30;;;;;;;;;;4916974;29;20083;-85
2022/05/07 10:10:10;;;;;;;;;;;;;;;;;;4918331;29;20028;-82
2022/05/07 10:12:37;;;;;;;11.70;8.52;;;;;;;;;;4917319;29;19962;-86
2022/05/07 10:15:07;;;;;;;11.15;7.95;;;;;;;;;;4917354;29;20496;-91
2022/05/07 10:17:40;;;;;;;11.13;9.48;;;;;;;;;;4917899;29;20044;-88
2022/05/07 10:20:09;;;;;;;11.95;8.55;;;;;;;;;;4916796;29;20028;-83
2022/05/07 10:22:35;;;;;;;11.07;7.95;;;;;;;;;;4916988;29;20114;-86
2022/05/07 10:26:07;;;;;;;10.00;8.55;;;;;;;;;;4918364;29;20028;-92
2022/05/07 10:29:04;;;;;;;8.07;6.07;;;;;;;;;;4924366;29;20039;-93
2022/05/07 10:34:32;;;;;;;11.23;6.65;;;;;;;;;;4862335;29;20506;-93
2022/05/07 10:37:03;;;;;;;8.13;7.23;;;;;;;;;;4861586;29;20117;-91
2022/05/07 10:39:31;;;;;;;8.50;7.38;;;;;;;;;;4893016;29;20063;-89
2022/05/07 10:41:58;;;;;;;10.45;7.20;;;;;;;;;;4918438;29;20044;-86
2022/05/07 10:44:34;;;;;;;9.95;8.20;;;;;;;;;;4918723;29;20036;-93
2022/05/07 10:47:17;;;;;;;9.38;7.78;;;;;;;;;;4918259;29;20084;-91
2022/05/07 10:50:13;;;;;;;9.48;7.97;;;;;;;;;;4917875;29;20048;-93
2022/05/07 10:52:39;;;;;;;12.10;8.82;;;;;;;;;;4901592;29;20033;-91
2022/05/07 10:55:10;;;;;;;10.65;8.70;;;;;;;;;;4917213;29;20080;-90
2022/05/07 10:57:39;;;;;;;9.85;8.80;;;;;;;;;;4917607;29;20040;-95
2022/05/07 11:00:13;;;;;;;8.65;7.18;;;;;;;;;;4918128;29;20036;-84
2022/05/07 11:02:39;;;;;;;8.48;7.45;;;;;;;;;;4917646;29;20036;-91
2022/05/07 11:05:11;;;;;;;8.95;7.65;;;;;;;;;;4920433;29;20557;-89
2022/05/07 11:07:39;;;;;;;9.23;7.40;;;;;;;;;;4922325;29;20060;-86
2022/05/07 11:10:06;;;;;;;8.88;7.97;;;;;;;;;;4920228;29;20043;-88
2022/05/07 11:12:32;;;;;;;13.07;7.47;;;;;;;;;;4919881;29;20032;-89
2022/05/07 11:14:59;;;;;;;8.02;7.18;;;;;;;;;;4920243;29;20036;-86
2022/05/07 11:17:32;;;;;;;9.35;8.35;;;;;;;;;;4920553;29;20115;-90
2022/05/07 11:19:58;;;;;;;12.45;9.30;;;;;;;;;;4919930;29;20030;-86
2022/05/07 11:22:30;;;;;;;8.95;8.02;;;;;;;;;;4918797;29;20123;-85
2022/05/07 11:24:57;;;;;;;11.88;8.50;;;;;;;;;;4919152;29;20039;-90
2022/05/07 11:27:29;;;;;;;10.68;9.00;;;;;;;;;;4919655;29;20043;-86
2022/05/07 11:29:56;;;;;;;11.15;7.88;;;;;;;;;;4919409;29;20067;-79
2022/05/07 11:32:22;;;;;;;8.43;7.28;;;;;;;;;;4919283;29;20501;-86
2022/05/07 11:34:54;;;;;;;8.52;7.65;;;;;;;;;;4918267;29;20504;-77
2022/05/07 11:37:22;;;;;;;15.00;8.90;;;;;;;;;;4919680;29;20028;-77
2022/05/07 11:39:50;;;;;;;11.80;8.25;;;;;;;;;;4919221;29;20052;-79
2022/05/07 11:42:46;;;;;;;8.80;7.90;;;;;;;;;;4919540;29;20038;-81
2022/05/07 11:45:26;;;;;;;9.55;7.50;;;;;;;;;;4902489;29;20383;-80
2022/05/07 11:47:55;;;;;;;11.02;7.50;;;;;;;;;;4918026;29;20389;-82
2022/05/07 11:50:30;;;;;;;10.00;7.55;;;;;;;;;;4918375;29;20482;-80
2022/05/07 11:52:56;;;;;;;10.75;7.88;;;;;;;;;;4918886;29;20067;-79
2022/05/07 11:55:29;;;;;;;8.43;7.18;;;;;;;;;;4917231;29;20052;-80
2022/05/07 11:57:57;;;;;;;7.93;7.13;;;;;;;;;;4916979;29;20425;-82
2022/05/07 12:00:24;;;;;;;11.68;7.20;;;;;;;;;;4916516;29;20028;-80
2022/05/07 12:02:51;;;;;;;8.75;7.60;;;;;;;;;;4918207;29;20028;-80
2022/05/07 12:05:18;;;;;;;12.25;8.80;;;;;;;;;;4917750;29;20035;-81
2022/05/07 12:07:46;;;;;;;7.70;6.88;;;;;;;;;;4918266;29;20389;-81
2022/05/07 12:10:12;;;;;;;11.23;7.13;;;;;;;;;;4916673;29;20031;-79
2022/05/07 12:12:39;;;;;;;9.60;7.28;;;;;;;;;;4917726;29;20390;-80
2022/05/07 12:15:05;;;;;;;9.25;8.10;;;;;;;;;;4918036;29;20063;-76
2022/05/07 12:20:18;;;;;;;7.60;6.47;;;;;;;;;;4921247;29;20079;-89
2022/05/07 12:30:59;;;;;;;9.75;8.45;;;;;;;;;;4938170;29;20083;-81
2022/05/07 12:33:25;;;;;;;9.68;8.10;;;;;;;;;;4935877;29;20079;-79
2022/05/07 12:35:52;;;;;;;7.93;7.00;;;;;;;;;;4937943;29;20485;-84
2022/05/07 12:38:18;;;;;;;9.43;7.65;;;;;;;;;;4937048;29;20039;-83
2022/05/07 12:40:44;;;;;;;8.73;7.47;;;;;;;;;;4936558;29;20023;-81
2022/05/07 12:43:10;;;;;;;10.50;8.73;;;;;;;;;;4936646;29;20028;-87
2022/05/07 12:45:37;;;;;;;11.98;7.53;;;;;;;;;;4937610;29;20027;-83
2022/05/07 12:48:03;;;;;;;8.85;7.75;;;;;;;;;;4933304;29;20038;-83
2022/05/07 12:50:29;;;;;;;9.75;7.90;;;;;;;;;;4940207;29;20024;-80
2022/05/07 12:52:55;;;;;;;10.18;7.90;;;;;;;;;;4936315;29;20457;-79
2022/05/07 12:55:21;;;;;;;7.82;6.95;;;;;;;;;;4934404;29;20028;-81
2022/05/07 12:57:48;;;;;;;8.88;6.85;;;;;;;;;;4936370;29;20042;-82
2022/05/07 13:00:14;;;;;;;9.27;7.30;;;;;;;;;;4919953;29;20020;-78
2022/05/07 13:02:40;;;;;;;12.38;7.22;;;;;;;;;;4935701;29;20031;-78
2022/05/07 13:05:07;;;;;;;8.77;7.13;;;;;;;;;;4939065;29;20430;-75
2022/05/07 13:07:33;;;;;;;16.70;8.10;;;;;;;;;;4937183;29;20031;-76
2022/05/07 13:09:59;;;;;;;9.38;6.60;;;;;;;;;;4931142;29;20027;-73
2022/05/07 13:12:26;;;;;;;9.80;6.32;;;;;;;;;;4935742;29;20040;-74
2022/05/07 13:14:52;;;;;;;13.75;6.90;;;;;;;;;;4925321;29;20120;-73
2022/05/07 13:17:18;;;;;;;9.27;8.27;;;;;;;;;;4935851;29;20131;-74
2022/05/07 13:19:44;;;;;;;9.60;8.13;;;;;;;;;;4935591;29;20024;-81
2022/05/07 13:22:10;;;;;;;10.52;6.88;;;;;;;;;;4932491;29;20052;-81
2022/05/07 13:24:36;;;;;;;8.35;6.78;;;;;;;;;;4932026;29;20028;-78
2022/05/07 13:27:02;;;;;;;11.23;7.80;;;;;;;;;;4916514;29;20477;-79
2022/05/07 13:29:32;;;;;;;7.38;5.88;;;;;;;;;;4912577;29;20020;-81
2022/05/07 13:31:58;;;;;;;9.45;6.30;;;;;;;;;;4916414;29;20381;-81
2022/05/07 13:34:24;;;;;;;10.48;6.20;;;;;;;;;;4916914;29;20026;-85
2022/05/07 13:36:50;;;;;;;11.60;7.80;;;;;;;;;;4916170;29;20048;-83
2022/05/07 13:39:16;;;;;;;10.05;6.95;;;;;;;;;;4918039;29;20031;-78
2022/05/07 13:41:46;;;;;;;10.05;7.00;;;;;;;;;;4916983;29;20064;-86
2022/05/07 13:44:12;;;;;;;9.73;7.03;;;;;;;;;;4917329;29;20020;-88
2022/05/07 13:46:38;;;;;;;12.15;6.65;;;;;;;;;;4917854;29;20032;-86
2022/05/07 13:49:05;;;;;;;10.82;6.63;;;;;;;;;;4917785;29;20024;-81
2022/05/07 13:51:31;;;;;;;10.15;6.53;;;;;;;;;;4917283;29;20478;-88
2022/05/07 13:53:58;;;;;;;11.05;6.50;;;;;;;;;;4917279;29;20028;-80
2022/05/07 13:56:26;;;;;;;7.88;6.05;;;;;;;;;;4917187;29;20086;-89
2022/05/07 13:58:52;;;;;;;6.22;5.63;;;;;;;;;;4917109;29;20024;-88
2022/05/07 14:01:18;;;;;;;10.23;5.72;;;;;;;;;;4918097;29;20036;-85
2022/05/07 14:03:45;;;;;;;8.20;5.80;;;;;;;;;;4916915;29;20171;-88
2022/05/07 14:06:16;;;;;;;7.85;6.57;;;;;;;;;;4916977;29;20164;-82
2022/05/07 14:08:42;;;;;;;10.48;6.18;;;;;;;;;;4917194;29;20036;-88
2022/05/07 14:11:08;;;;;;;8.15;5.72;;;;;;;;;;4917313;29;20029;-89
2022/05/07 14:13:34;;;;;;;7.63;5.45;;;;;;;;;;4917329;29;20489;-83
2022/05/07 14:16:01;;;;;;;8.52;5.20;;;;;;;;;;4916959;29;20052;-88
2022/05/07 14:18:27;;;;;;;7.60;6.00;;;;;;;;;;4917076;29;20387;-82
2022/05/07 14:20:56;;;;;;;7.15;5.50;;;;;;;;;;4916954;29;20079;-82
2022/05/07 14:23:22;;;;;;;8.80;5.40;;;;;;;;;;4919482;29;20048;-87
2022/05/07 14:25:48;;;;;;;9.02;6.35;;;;;;;;;;4916971;29;20028;-81
2022/05/07 14:28:14;;;;;;;10.13;5.90;;;;;;;;;;4916428;29;20032;-86
2022/05/07 14:30:41;;;;;;;7.80;6.28;;;;;;;;;;4916698;29;20049;-87
2022/05/07 14:33:08;;;;;;;9.20;6.47;;;;;;;;;;4919204;29;20024;-88
2022/05/07 14:35:37;;;;;;;7.63;6.53;;;;;;;;;;4930379;29;20025;-81
2022/05/07 14:38:09;;;;;;;11.63;8.25;;;;;;;;;;4920098;29;20429;-87
2022/05/07 14:40:36;;;;;;;11.97;8.07;;;;;;;;;;4920915;29;20691;-79
2022/05/07 14:43:03;;;;;;;13.55;7.55;;;;;;;;;;4920043;29;20035;-79
2022/05/07 14:45:33;;;;;;;10.38;6.97;;;;;;;;;;4920855;29;20059;-74
2022/05/07 14:48:00;;;;;;;8.38;5.78;;;;;;;;;;4919252;29;20020;-79
2022/05/07 14:50:27;;;;;;;9.07;5.65;;;;;;;;;;4919690;29;20032;-78
2022/05/07 14:52:53;;;;;;;6.60;5.38;;;;;;;;;;4920811;29;20021;-82
2022/05/07 14:55:20;;;;;;;9.85;6.50;;;;;;;;;;4919039;29;20075;-79
2022/05/07 14:57:47;;;;;;;8.93;5.50;;;;;;;;;;4919810;29;20071;-78
2022/05/07 15:00:13;;;;;;;7.53;5.57;;;;;;;;;;4920293;29;20030;-79
2022/05/07 15:02:42;;;;;;;6.35;4.60;;;;;;;;;;4919223;29;20028;-79
2022/05/07 15:05:09;;;;;;;5.43;3.88;;;;;;;;;;4920608;29;20469;-77
2022/05/07 15:07:36;;;;;;;6.53;4.28;;;;;;;;;;4919162;29;20507;-81
2022/05/07 15:12:49;;;;;;;7.05;4.80;;;;;;;;;;4919250;29;20039;-78
2022/05/07 15:15:15;;;;;;;11.10;9.65;;;;;;;;;;4921026;29;20130;-79
2022/05/07 15:17:42;;;;;;;10.88;6.55;;;;;;;;;;4919829;29;20036;-80
2022/05/07 15:20:09;;;;;;;7.22;6.30;;;;;;;;;;4918325;29;20060;-80
2022/05/07 15:22:37;;;;;;;16.45;11.65;;;;;;;;;;4929579;29;20059;-80
2022/05/07 15:25:03;;;;;;;10.10;8.00;;;;;;;;;;4938873;29;20019;-80
2022/05/07 15:27:29;;;;;;;12.55;9.35;;;;;;;;;;4921731;29;20031;-79
2022/05/07 15:29:55;;;;;;;7.47;6.18;;;;;;;;;;4921853;29;20047;-79
2022/05/07 15:37:52;;;;;;;28.73;19.40;;;;;;;;;;4939897;29;20047;-82
2022/05/07 15:40:18;;;;;;;15.48;11.45;;;;;;;;;;4939153;29;20024;-81
2022/05/07 15:42:45;;;;;;;12.43;10.20;;;;;;;;;;4937485;29;20081;-82